sensor_id;sensor_type;location;lat;lon;timestamp;pressure;altitude;pressure_sealevel;temperature;humidity
14383;BME280;7275;50.328;8.720;2023-02-03T00:02:00;100699.44;;;14.48;47.53
14383;BME280;7275;50.328;8.720;2023-02-03T00:04:28;100684.47;;;14.46;47.45
14383;BME280;7275;50.328;8.720;2023-02-03T00:06:56;100694.16;;;14.47;47.52
14383;BME280;7275;50.328;8.720;2023-02-03T00:09:24;100690.69;;;14.45;47.57
14383;BME280;7275;50.328;8.720;2023-02-03T00:11:53;100697.88;;;14.43;47.50
14383;BME280;7275;50.328;8.720;2023-02-03T00:14:20;100704.09;;;14.41;47.48
14383;BME280;7275;50.328;8.720;2023-02-03T00:16:48;100720.06;;;14.41;47.59
14383;BME280;7275;50.328;8.720;2023-02-03T00:19:15;100713.84;;;14.43;47.57
14383;BME280;7275;50.328;8.720;2023-02-03T00:21:43;100714.72;;;14.43;47.52
14383;BME280;7275;50.328;8.720;2023-02-03T00:24:12;100716.41;;;14.46;47.58
14383;BME280;7275;50.328;8.720;2023-02-03T00:26:40;100718.13;;;14.47;47.64
14383;BME280;7275;50.328;8.720;2023-02-03T00:29:08;100725.19;;;14.48;47.59
14383;BME280;7275;50.328;8.720;2023-02-03T00:31:36;100719.81;;;14.49;47.53
14383;BME280;7275;50.328;8.720;2023-02-03T00:34:03;100718.88;;;14.50;47.54
14383;BME280;7275;50.328;8.720;2023-02-03T00:36:31;100715.22;;;14.53;47.66
14383;BME280;7275;50.328;8.720;2023-02-03T00:38:59;100712.56;;;14.53;47.63
14383;BME280;7275;50.328;8.720;2023-02-03T00:41:29;100705.47;;;14.53;47.71
14383;BME280;7275;50.328;8.720;2023-02-03T00:43:57;100695.69;;;14.54;47.62
14383;BME280;7275;50.328;8.720;2023-02-03T00:46:25;100678.94;;;14.50;47.58
14383;BME280;7275;50.328;8.720;2023-02-03T00:48:52;100676.53;;;14.44;47.52
14383;BME280;7275;50.328;8.720;2023-02-03T00:51:20;100668.84;;;14.36;47.71
14383;BME280;7275;50.328;8.720;2023-02-03T00:53:48;100657.56;;;14.30;47.71
14383;BME280;7275;50.328;8.720;2023-02-03T00:56:15;100643.47;;;14.26;47.80
14383;BME280;7275;50.328;8.720;2023-02-03T00:58:44;100635.72;;;14.20;47.86
14383;BME280;7275;50.328;8.720;2023-02-03T01:01:11;100651.03;;;14.14;47.78
14383;BME280;7275;50.328;8.720;2023-02-03T01:03:39;100669.06;;;14.06;47.95
14383;BME280;7275;50.328;8.720;2023-02-03T01:06:08;100669.22;;;14.01;48.04
14383;BME280;7275;50.328;8.720;2023-02-03T01:08:36;100667.59;;;13.97;48.04
14383;BME280;7275;50.328;8.720;2023-02-03T01:11:07;100655.28;;;13.95;48.14
14383;BME280;7275;50.328;8.720;2023-02-03T01:13:35;100645.69;;;13.91;48.33
14383;BME280;7275;50.328;8.720;2023-02-03T01:16:06;100648.44;;;13.88;48.25
14383;BME280;7275;50.328;8.720;2023-02-03T01:18:33;100652.03;;;13.87;48.38
14383;BME280;7275;50.328;8.720;2023-02-03T01:21:05;100653.00;;;13.84;48.42
14383;BME280;7275;50.328;8.720;2023-02-03T01:23:33;100653.97;;;13.82;48.55
14383;BME280;7275;50.328;8.720;2023-02-03T01:26:03;100650.44;;;13.81;48.52
14383;BME280;7275;50.328;8.720;2023-02-03T01:28:31;100655.81;;;13.80;48.67
14383;BME280;7275;50.328;8.720;2023-02-03T01:31:10;100646.06;;;13.80;48.69
14383;BME280;7275;50.328;8.720;2023-02-03T01:33:37;100640.69;;;13.82;48.75
14383;BME280;7275;50.328;8.720;2023-02-03T01:36:07;100653.81;;;13.86;48.73
14383;BME280;7275;50.328;8.720;2023-02-03T01:38:36;100651.06;;;13.89;48.76
14383;BME280;7275;50.328;8.720;2023-02-03T01:41:06;100651.75;;;13.94;48.81
14383;BME280;7275;50.328;8.720;2023-02-03T01:43:36;100641.88;;;13.98;48.61
14383;BME280;7275;50.328;8.720;2023-02-03T01:46:17;100634.75;;;13.98;48.64
14383;BME280;7275;50.328;8.720;2023-02-03T01:48:47;100651.66;;;13.97;48.64
14383;BME280;7275;50.328;8.720;2023-02-03T01:51:14;100640.25;;;13.94;48.65
14383;BME280;7275;50.328;8.720;2023-02-03T01:53:42;100629.91;;;13.86;48.69
14383;BME280;7275;50.328;8.720;2023-02-03T01:56:10;100633.59;;;13.82;48.65
14383;BME280;7275;50.328;8.720;2023-02-03T01:58:40;100628.38;;;13.79;48.84
14383;BME280;7275;50.328;8.720;2023-02-03T02:01:09;100626.66;;;13.78;48.91
14383;BME280;7275;50.328;8.720;2023-02-03T02:03:41;100625.78;;;13.78;48.96
14383;BME280;7275;50.328;8.720;2023-02-03T02:06:12;100624.06;;;13.77;48.94
14383;BME280;7275;50.328;8.720;2023-02-03T02:08:41;100632.88;;;13.77;48.95
14383;BME280;7275;50.328;8.720;2023-02-03T02:11:10;100642.66;;;13.77;48.92
14383;BME280;7275;50.328;8.720;2023-02-03T02:13:38;100638.31;;;13.74;49.07
14383;BME280;7275;50.328;8.720;2023-02-03T02:16:10;100633.03;;;13.73;49.14
14383;BME280;7275;50.328;8.720;2023-02-03T02:18:50;100638.41;;;13.71;49.10
14383;BME280;7275;50.328;8.720;2023-02-03T02:21:37;100641.13;;;13.70;49.08
14383;BME280;7275;50.328;8.720;2023-02-03T02:24:22;100638.53;;;13.68;49.19
14383;BME280;7275;50.328;8.720;2023-02-03T02:27:00;100638.47;;;13.70;49.23
14383;BME280;7275;50.328;8.720;2023-02-03T02:29:56;100632.19;;;13.72;49.13
14383;BME280;7275;50.328;8.720;2023-02-03T02:32:43;100626.75;;;13.75;49.08
14383;BME280;7275;50.328;8.720;2023-02-03T02:35:19;100631.09;;;13.78;49.11
14383;BME280;7275;50.328;8.720;2023-02-03T02:37:58;100639.06;;;13.78;49.24
14383;BME280;7275;50.328;8.720;2023-02-03T02:40:32;100650.56;;;13.78;49.15
14383;BME280;7275;50.328;8.720;2023-02-03T02:43:06;100653.22;;;13.78;49.28
14383;BME280;7275;50.328;8.720;2023-02-03T02:45:42;100656.69;;;13.80;49.28
14383;BME280;7275;50.328;8.720;2023-02-03T02:48:17;100668.06;;;13.84;49.27
14383;BME280;7275;50.328;8.720;2023-02-03T02:50:50;100658.19;;;13.87;49.37
14383;BME280;7275;50.328;8.720;2023-02-03T02:53:20;100654.56;;;13.90;49.24
14383;BME280;7275;50.328;8.720;2023-02-03T02:55:50;100653.59;;;13.92;49.26
14383;BME280;7275;50.328;8.720;2023-02-03T02:58:20;100655.28;;;13.95;49.27
14383;BME280;7275;50.328;8.720;2023-02-03T03:00:48;100648.06;;;13.98;49.15
14383;BME280;7275;50.328;8.720;2023-02-03T03:03:20;100643.44;;;14.03;49.23
14383;BME280;7275;50.328;8.720;2023-02-03T03:05:50;100638.81;;;14.08;49.17
14383;BME280;7275;50.328;8.720;2023-02-03T03:08:22;100642.19;;;14.13;49.14
14383;BME280;7275;50.328;8.720;2023-02-03T03:10:52;100641.09;;;14.19;49.08
14383;BME280;7275;50.328;8.720;2023-02-03T03:13:23;100650.69;;;14.23;49.01
14383;BME280;7275;50.328;8.720;2023-02-03T03:15:52;100663.81;;;14.27;48.88
14383;BME280;7275;50.328;8.720;2023-02-03T03:18:27;100645.88;;;14.34;48.83
14383;BME280;7275;50.328;8.720;2023-02-03T03:20:58;100628.94;;;14.36;48.73
14383;BME280;7275;50.328;8.720;2023-02-03T03:23:33;100631.47;;;14.39;48.75
14383;BME280;7275;50.328;8.720;2023-02-03T03:26:09;100608.31;;;14.41;48.67
14383;BME280;7275;50.328;8.720;2023-02-03T03:28:43;100607.34;;;14.44;48.64
14383;BME280;7275;50.328;8.720;2023-02-03T03:31:12;100606.38;;;14.47;48.59
14383;BME280;7275;50.328;8.720;2023-02-03T03:33:41;100600.97;;;14.48;48.57
14383;BME280;7275;50.328;8.720;2023-02-03T03:36:17;100596.47;;;14.50;48.46
14383;BME280;7275;50.328;8.720;2023-02-03T03:38:52;100589.28;;;14.52;48.40
14383;BME280;7275;50.328;8.720;2023-02-03T03:41:26;100602.56;;;14.54;48.32
14383;BME280;7275;50.328;8.720;2023-02-03T03:44:00;100612.25;;;14.55;48.40
14383;BME280;7275;50.328;8.720;2023-02-03T03:46:31;100609.59;;;14.55;48.43
14383;BME280;7275;50.328;8.720;2023-02-03T03:49:03;100595.25;;;14.59;48.34
14383;BME280;7275;50.328;8.720;2023-02-03T03:51:34;100572.16;;;14.59;48.31
14383;BME280;7275;50.328;8.720;2023-02-03T03:54:06;100595.22;;;14.60;48.19
14383;BME280;7275;50.328;8.720;2023-02-03T03:56:38;100581.91;;;14.60;48.16
14383;BME280;7275;50.328;8.720;2023-02-03T03:59:08;100567.66;;;14.61;48.28
14383;BME280;7275;50.328;8.720;2023-02-03T04:01:38;100569.50;;;14.59;48.08
14383;BME280;7275;50.328;8.720;2023-02-03T04:04:09;100590.78;;;14.59;48.20
14383;BME280;7275;50.328;8.720;2023-02-03T04:06:38;100602.31;;;14.60;48.03
14383;BME280;7275;50.328;8.720;2023-02-03T04:09:06;100617.34;;;14.61;48.10
14383;BME280;7275;50.328;8.720;2023-02-03T04:11:33;100621.69;;;14.63;48.07
14383;BME280;7275;50.328;8.720;2023-02-03T04:14:34;100629.59;;;14.65;48.01
14383;BME280;7275;50.328;8.720;2023-02-03T04:17:04;100629.50;;;14.68;47.90
14383;BME280;7275;50.328;8.720;2023-02-03T04:19:32;100611.66;;;14.70;47.89
14383;BME280;7275;50.328;8.720;2023-02-03T04:22:00;100596.56;;;14.70;47.71
14383;BME280;7275;50.328;8.720;2023-02-03T04:24:27;100594.66;;;14.74;47.87
14383;BME280;7275;50.328;8.720;2023-02-03T04:26:55;100621.25;;;14.74;47.82
14383;BME280;7275;50.328;8.720;2023-02-03T04:29:22;100646.03;;;14.76;47.53
14383;BME280;7275;50.328;8.720;2023-02-03T04:31:50;100663.69;;;14.78;47.48
14383;BME280;7275;50.328;8.720;2023-02-03T04:34:17;100654.72;;;14.81;47.53
14383;BME280;7275;50.328;8.720;2023-02-03T04:36:46;100654.66;;;14.82;47.52
14383;BME280;7275;50.328;8.720;2023-02-03T04:39:13;100639.53;;;14.83;47.33
14383;BME280;7275;50.328;8.720;2023-02-03T04:41:41;100638.66;;;14.82;47.34
14383;BME280;7275;50.328;8.720;2023-02-03T04:44:08;100636.06;;;14.81;47.32
14383;BME280;7275;50.328;8.720;2023-02-03T04:46:36;100637.88;;;14.80;47.30
14383;BME280;7275;50.328;8.720;2023-02-03T04:49:03;100634.41;;;14.78;47.24
14383;BME280;7275;50.328;8.720;2023-02-03T04:51:31;100616.63;;;14.79;47.27
14383;BME280;7275;50.328;8.720;2023-02-03T04:54:00;100614.00;;;14.77;47.29
14383;BME280;7275;50.328;8.720;2023-02-03T04:56:27;100612.28;;;14.76;47.27
14383;BME280;7275;50.328;8.720;2023-02-03T04:58:55;100618.53;;;14.75;47.39
14383;BME280;7275;50.328;8.720;2023-02-03T05:01:22;100607.88;;;14.75;47.46
14383;BME280;7275;50.328;8.720;2023-02-03T05:03:50;100586.66;;;14.74;47.37
14383;BME280;7275;50.328;8.720;2023-02-03T05:06:21;100584.00;;;14.74;47.48
14383;BME280;7275;50.328;8.720;2023-02-03T05:08:49;100581.44;;;14.71;47.49
14383;BME280;7275;50.328;8.720;2023-02-03T05:11:18;100574.41;;;14.70;47.60
14383;BME280;7275;50.328;8.720;2023-02-03T05:13:45;100588.63;;;14.69;47.52
14383;BME280;7275;50.328;8.720;2023-02-03T05:16:13;100590.44;;;14.68;47.61
14383;BME280;7275;50.328;8.720;2023-02-03T05:18:41;100578.13;;;14.66;47.68
14383;BME280;7275;50.328;8.720;2023-02-03T05:21:08;100566.78;;;14.61;47.80
14383;BME280;7275;50.328;8.720;2023-02-03T05:23:36;100563.44;;;14.56;47.73
14383;BME280;7275;50.328;8.720;2023-02-03T05:26:03;100557.50;;;14.49;47.91
14383;BME280;7275;50.328;8.720;2023-02-03T05:28:32;100565.72;;;14.43;47.97
14383;BME280;7275;50.328;8.720;2023-02-03T05:31:00;100567.63;;;14.39;47.95
14383;BME280;7275;50.328;8.720;2023-02-03T05:33:29;100558.78;;;14.39;48.01
14383;BME280;7275;50.328;8.720;2023-02-03T05:35:56;100565.84;;;14.40;48.01
14383;BME280;7275;50.328;8.720;2023-02-03T05:38:24;100573.75;;;14.41;47.93
14383;BME280;7275;50.328;8.720;2023-02-03T05:40:51;100571.97;;;14.42;48.06
14383;BME280;7275;50.328;8.720;2023-02-03T05:43:38;100576.38;;;14.43;47.98
14383;BME280;7275;50.328;8.720;2023-02-03T05:46:06;100583.38;;;14.46;48.04
14383;BME280;7275;50.328;8.720;2023-02-03T05:48:34;100582.34;;;14.48;47.90
14383;BME280;7275;50.328;8.720;2023-02-03T05:51:01;100576.06;;;14.51;47.87
14383;BME280;7275;50.328;8.720;2023-02-03T05:53:29;100594.56;;;14.54;47.92
14383;BME280;7275;50.328;8.720;2023-02-03T05:55:56;100588.31;;;14.55;47.79
14383;BME280;7275;50.328;8.720;2023-02-03T05:58:24;100587.44;;;14.54;47.79
14383;BME280;7275;50.328;8.720;2023-02-03T06:00:52;100582.13;;;14.54;47.79
14383;BME280;7275;50.328;8.720;2023-02-03T06:03:20;100575.00;;;14.55;47.70
14383;BME280;7275;50.328;8.720;2023-02-03T06:05:47;100569.69;;;14.55;47.82
14383;BME280;7275;50.328;8.720;2023-02-03T06:08:15;100570.56;;;14.55;47.58
14383;BME280;7275;50.328;8.720;2023-02-03T06:10:42;100569.63;;;14.56;47.75
14383;BME280;7275;50.328;8.720;2023-02-03T06:13:11;100560.72;;;14.57;47.91
14383;BME280;7275;50.328;8.720;2023-02-03T06:15:39;100545.66;;;14.56;47.74
14383;BME280;7275;50.328;8.720;2023-02-03T06:18:08;100553.66;;;14.56;47.73
14383;BME280;7275;50.328;8.720;2023-02-03T06:20:36;100559.03;;;14.55;47.84
14383;BME280;7275;50.328;8.720;2023-02-03T06:23:03;100542.19;;;14.54;47.73
14383;BME280;7275;50.328;8.720;2023-02-03T06:25:31;100553.72;;;14.55;47.87
14383;BME280;7275;50.328;8.720;2023-02-03T06:27:58;100564.38;;;14.55;47.70
14383;BME280;7275;50.328;8.720;2023-02-03T06:30:26;100564.28;;;14.56;47.67
14383;BME280;7275;50.328;8.720;2023-02-03T06:32:54;100565.09;;;14.58;47.73
14383;BME280;7275;50.328;8.720;2023-02-03T06:35:23;100564.19;;;14.59;47.52
14383;BME280;7275;50.328;8.720;2023-02-03T06:37:51;100576.59;;;14.60;47.65
14383;BME280;7275;50.328;8.720;2023-02-03T06:40:19;100573.91;;;14.60;47.47
14383;BME280;7275;50.328;8.720;2023-02-03T06:42:47;100567.66;;;14.61;47.49
14383;BME280;7275;50.328;8.720;2023-02-03T06:45:16;100584.56;;;14.60;47.59
14383;BME280;7275;50.328;8.720;2023-02-03T06:47:44;100580.97;;;14.61;47.42
14383;BME280;7275;50.328;8.720;2023-02-03T06:50:13;100576.50;;;14.62;47.50
14383;BME280;7275;50.328;8.720;2023-02-03T06:52:42;100564.91;;;14.63;47.37
14383;BME280;7275;50.328;8.720;2023-02-03T06:55:09;100559.59;;;14.63;47.24
14383;BME280;7275;50.328;8.720;2023-02-03T06:57:42;100576.50;;;14.62;47.31
14383;BME280;7275;50.328;8.720;2023-02-03T07:00:11;100581.84;;;14.62;47.38
14383;BME280;7275;50.328;8.720;2023-02-03T07:02:43;100596.00;;;14.62;47.31
14383;BME280;7275;50.328;8.720;2023-02-03T07:05:11;100572.06;;;14.62;47.21
14383;BME280;7275;50.328;8.720;2023-02-03T07:07:38;100571.03;;;14.65;47.41
14383;BME280;7275;50.328;8.720;2023-02-03T07:10:08;100558.69;;;14.64;47.22
14383;BME280;7275;50.328;8.720;2023-02-03T07:12:35;100561.28;;;14.65;47.35
14383;BME280;7275;50.328;8.720;2023-02-03T07:15:03;100556.81;;;14.66;47.25
14383;BME280;7275;50.328;8.720;2023-02-03T07:17:31;100563.03;;;14.66;47.33
14383;BME280;7275;50.328;8.720;2023-02-03T07:19:58;100557.69;;;14.66;47.23
14383;BME280;7275;50.328;8.720;2023-02-03T07:22:26;100554.09;;;14.67;47.35
14383;BME280;7275;50.328;8.720;2023-02-03T07:24:54;100563.84;;;14.68;47.25
14383;BME280;7275;50.328;8.720;2023-02-03T07:27:22;100574.41;;;14.70;47.13
14383;BME280;7275;50.328;8.720;2023-02-03T07:29:50;100575.22;;;14.72;47.02
14383;BME280;7275;50.328;8.720;2023-02-03T07:32:18;100579.59;;;14.73;47.21
14383;BME280;7275;50.328;8.720;2023-02-03T07:34:45;100572.44;;;14.75;47.08
14383;BME280;7275;50.328;8.720;2023-02-03T07:37:13;100573.28;;;14.75;46.99
14383;BME280;7275;50.328;8.720;2023-02-03T07:39:40;100577.69;;;14.76;46.94
14383;BME280;7275;50.328;8.720;2023-02-03T07:42:08;100575.84;;;14.78;47.01
14383;BME280;7275;50.328;8.720;2023-02-03T07:44:37;100595.34;;;14.79;46.83
14383;BME280;7275;50.328;8.720;2023-02-03T07:47:04;100591.75;;;14.80;46.89
14383;BME280;7275;50.328;8.720;2023-02-03T07:49:32;100589.00;;;14.81;46.88
14383;BME280;7275;50.328;8.720;2023-02-03T07:51:59;100587.09;;;14.85;46.89
14383;BME280;7275;50.328;8.720;2023-02-03T07:54:27;100601.22;;;14.87;46.80
14383;BME280;7275;50.328;8.720;2023-02-03T07:56:55;100596.69;;;14.89;46.64
14383;BME280;7275;50.328;8.720;2023-02-03T07:59:22;100603.81;;;14.88;46.63
14383;BME280;7275;50.328;8.720;2023-02-03T08:01:51;100605.66;;;14.86;46.62
14383;BME280;7275;50.328;8.720;2023-02-03T08:04:21;100602.13;;;14.86;46.66
14383;BME280;7275;50.328;8.720;2023-02-03T08:06:49;100590.50;;;14.88;46.77
14383;BME280;7275;50.328;8.720;2023-02-03T08:09:17;100600.09;;;14.92;46.66
14383;BME280;7275;50.328;8.720;2023-02-03T08:11:44;100596.53;;;14.93;46.58
14383;BME280;7275;50.328;8.720;2023-02-03T08:14:12;100610.63;;;14.95;46.44
14383;BME280;7275;50.328;8.720;2023-02-03T08:16:39;100596.38;;;14.96;46.44
14383;BME280;7275;50.328;8.720;2023-02-03T08:19:09;100574.09;;;14.99;46.48
14383;BME280;7275;50.328;8.720;2023-02-03T08:21:37;100584.66;;;15.00;46.54
14383;BME280;7275;50.328;8.720;2023-02-03T08:24:05;100574.88;;;15.01;46.54
14383;BME280;7275;50.328;8.720;2023-02-03T08:26:32;100586.34;;;15.03;46.49
14383;BME280;7275;50.328;8.720;2023-02-03T08:28:59;100584.47;;;15.05;46.52
14383;BME280;7275;50.328;8.720;2023-02-03T08:31:27;100588.91;;;15.06;46.43
14383;BME280;7275;50.328;8.720;2023-02-03T08:33:54;100578.16;;;15.07;46.50
14383;BME280;7275;50.328;8.720;2023-02-03T08:36:24;100572.69;;;15.10;46.64
14383;BME280;7275;50.328;8.720;2023-02-03T08:38:52;100569.13;;;15.11;46.39
14383;BME280;7275;50.328;8.720;2023-02-03T08:41:19;100569.13;;;15.11;46.52
14383;BME280;7275;50.328;8.720;2023-02-03T08:43:47;100568.13;;;15.14;46.31
14383;BME280;7275;50.328;8.720;2023-02-03T08:46:14;100557.47;;;15.14;46.32
14383;BME280;7275;50.328;8.720;2023-02-03T08:48:42;100553.88;;;15.15;46.42
14383;BME280;7275;50.328;8.720;2023-02-03T08:51:10;100546.69;;;15.17;46.39
14383;BME280;7275;50.328;8.720;2023-02-03T08:53:39;100557.22;;;15.20;46.51
14383;BME280;7275;50.328;8.720;2023-02-03T08:56:09;100556.28;;;15.21;46.27
14383;BME280;7275;50.328;8.720;2023-02-03T08:58:38;100561.47;;;15.24;46.33
14383;BME280;7275;50.328;8.720;2023-02-03T09:01:06;100549.84;;;15.27;46.26
14383;BME280;7275;50.328;8.720;2023-02-03T09:03:35;100559.44;;;15.31;46.27
14383;BME280;7275;50.328;8.720;2023-02-03T09:06:03;100562.88;;;15.33;46.11
14383;BME280;7275;50.328;8.720;2023-02-03T09:08:31;100563.69;;;15.35;46.23
14383;BME280;7275;50.328;8.720;2023-02-03T09:11:00;100563.63;;;15.36;46.14
14383;BME280;7275;50.328;8.720;2023-02-03T09:13:28;100572.41;;;15.38;46.05
14383;BME280;7275;50.328;8.720;2023-02-03T09:15:58;100575.00;;;15.40;45.95
14383;BME280;7275;50.328;8.720;2023-02-03T09:18:26;100551.81;;;15.42;46.00
14383;BME280;7275;50.328;8.720;2023-02-03T09:20:59;100549.06;;;15.45;45.79
14383;BME280;7275;50.328;8.720;2023-02-03T09:23:27;100545.31;;;15.49;45.85
14383;BME280;7275;50.328;8.720;2023-02-03T09:25:54;100543.34;;;15.54;45.88
14383;BME280;7275;50.328;8.720;2023-02-03T09:28:23;100542.19;;;15.59;45.83
14383;BME280;7275;50.328;8.720;2023-02-03T09:30:51;100565.00;;;15.66;45.91
14383;BME280;7275;50.328;8.720;2023-02-03T09:33:18;100544.22;;;15.73;45.79
14383;BME280;7275;50.328;8.720;2023-02-03T09:35:51;100529.78;;;15.78;45.80
14383;BME280;7275;50.328;8.720;2023-02-03T09:38:18;100551.69;;;15.85;45.67
14383;BME280;7275;50.328;8.720;2023-02-03T09:40:49;100538.22;;;15.88;45.53
14383;BME280;7275;50.328;8.720;2023-02-03T09:43:39;100545.13;;;15.92;45.57
14383;BME280;7275;50.328;8.720;2023-02-03T09:46:12;100537.00;;;15.95;45.56
14383;BME280;7275;50.328;8.720;2023-02-03T09:48:46;100533.97;;;16.02;45.32
14383;BME280;7275;50.328;8.720;2023-02-03T09:51:19;100525.75;;;16.07;45.38
14383;BME280;7275;50.328;8.720;2023-02-03T09:53:49;100537.09;;;16.12;45.41
14383;BME280;7275;50.328;8.720;2023-02-03T09:56:25;100541.41;;;16.15;45.34
14383;BME280;7275;50.328;8.720;2023-02-03T09:58:54;100533.34;;;16.16;45.29
14383;BME280;7275;50.328;8.720;2023-02-03T10:01:23;100529.53;;;16.22;45.15
14383;BME280;7275;50.328;8.720;2023-02-03T10:03:56;100524.91;;;16.25;45.22
14383;BME280;7275;50.328;8.720;2023-02-03T10:06:30;100538.09;;;16.28;45.15
14383;BME280;7275;50.328;8.720;2023-02-03T10:09:11;100537.16;;;16.29;45.13
14383;BME280;7275;50.328;8.720;2023-02-03T10:11:57;100533.47;;;16.32;45.04
14383;BME280;7275;50.328;8.720;2023-02-03T10:14:41;100531.81;;;16.29;45.27
14383;BME280;7275;50.328;8.720;2023-02-03T10:17:21;100539.03;;;16.27;44.88
14383;BME280;7275;50.328;8.720;2023-02-03T10:19:54;100554.25;;;16.25;45.23
14383;BME280;7275;50.328;8.720;2023-02-03T10:22:25;100546.25;;;16.25;45.21
14383;BME280;7275;50.328;8.720;2023-02-03T10:24:56;100547.31;;;16.21;45.12
14383;BME280;7275;50.328;8.720;2023-02-03T10:27:26;100549.16;;;16.21;45.20
14383;BME280;7275;50.328;8.720;2023-02-03T10:29:59;100552.94;;;16.15;45.30
14383;BME280;7275;50.328;8.720;2023-02-03T10:32:28;100564.78;;;16.10;45.22
14383;BME280;7275;50.328;8.720;2023-02-03T10:34:56;100550.78;;;16.05;45.23
14383;BME280;7275;50.328;8.720;2023-02-03T10:37:27;100545.66;;;16.00;45.53
14383;BME280;7275;50.328;8.720;2023-02-03T10:39:57;100545.81;;;15.97;45.58
14383;BME280;7275;50.328;8.720;2023-02-03T10:42:26;100537.94;;;15.94;45.70
14383;BME280;7275;50.328;8.720;2023-02-03T10:45:16;100538.97;;;15.91;45.96
14383;BME280;7275;50.328;8.720;2023-02-03T10:47:46;100530.97;;;15.91;45.94
14383;BME280;7275;50.328;8.720;2023-02-03T10:50:17;100523.69;;;15.95;46.07
14383;BME280;7275;50.328;8.720;2023-02-03T10:52:46;100520.72;;;16.01;46.30
14383;BME280;7275;50.328;8.720;2023-02-03T10:55:30;100525.75;;;16.07;46.22
14383;BME280;7275;50.328;8.720;2023-02-03T10:58:05;100524.56;;;16.14;46.34
14383;BME280;7275;50.328;8.720;2023-02-03T11:00:38;100504.63;;;16.21;46.36
14383;BME280;7275;50.328;8.720;2023-02-03T11:03:07;100503.25;;;16.31;46.30
14383;BME280;7275;50.328;8.720;2023-02-03T11:05:42;100504.63;;;16.40;46.28
14383;BME280;7275;50.328;8.720;2023-02-03T11:08:14;100503.47;;;16.45;46.26
14383;BME280;7275;50.328;8.720;2023-02-03T11:10:42;100498.84;;;16.49;46.21
14383;BME280;7275;50.328;8.720;2023-02-03T11:13:12;100524.56;;;16.51;46.33
14383;BME280;7275;50.328;8.720;2023-02-03T11:15:50;100537.75;;;16.54;46.22
14383;BME280;7275;50.328;8.720;2023-02-03T11:18:35;100520.94;;;16.52;46.20
14383;BME280;7275;50.328;8.720;2023-02-03T11:21:08;100525.44;;;16.52;46.11
14383;BME280;7275;50.328;8.720;2023-02-03T11:23:43;100521.97;;;16.50;46.15
14383;BME280;7275;50.328;8.720;2023-02-03T11:26:14;100540.59;;;16.51;46.16
14383;BME280;7275;50.328;8.720;2023-02-03T11:28:45;100540.75;;;16.47;46.10
14383;BME280;7275;50.328;8.720;2023-02-03T11:31:19;100548.19;;;16.40;46.21
14383;BME280;7275;50.328;8.720;2023-02-03T11:33:52;100560.91;;;16.35;46.31
14383;BME280;7275;50.328;8.720;2023-02-03T11:36:21;100564.72;;;16.30;46.42
14383;BME280;7275;50.328;8.720;2023-02-03T11:38:51;100545.44;;;16.23;46.41
14383;BME280;7275;50.328;8.720;2023-02-03T11:41:19;100522.69;;;16.16;46.62
14383;BME280;7275;50.328;8.720;2023-02-03T11:43:54;100513.16;;;16.11;46.90
14383;BME280;7275;50.328;8.720;2023-02-03T11:46:24;100501.97;;;16.02;46.83
14383;BME280;7275;50.328;8.720;2023-02-03T11:49:02;100501.38;;;15.96;46.98
14383;BME280;7275;50.328;8.720;2023-02-03T11:51:37;100492.66;;;15.92;46.97
14383;BME280;7275;50.328;8.720;2023-02-03T11:54:21;100479.63;;;15.86;47.22
14383;BME280;7275;50.328;8.720;2023-02-03T11:57:07;100474.41;;;15.83;47.89
14383;BME280;7275;50.328;8.720;2023-02-03T11:59:47;100472.78;;;15.81;47.79
14383;BME280;7275;50.328;8.720;2023-02-03T12:02:43;100443.50;;;15.79;47.81
14383;BME280;7275;50.328;8.720;2023-02-03T12:05:30;100438.13;;;15.81;47.81
14383;BME280;7275;50.328;8.720;2023-02-03T12:08:08;100446.13;;;15.81;47.89
14383;BME280;7275;50.328;8.720;2023-02-03T12:10:47;100443.59;;;15.78;48.14
14383;BME280;7275;50.328;8.720;2023-02-03T12:13:30;100435.88;;;15.72;48.20
14383;BME280;7275;50.328;8.720;2023-02-03T12:16:24;100447.34;;;15.74;48.13
14383;BME280;7275;50.328;8.720;2023-02-03T12:19:06;100458.88;;;15.74;48.15
14383;BME280;7275;50.328;8.720;2023-02-03T12:21:42;100458.88;;;15.74;48.11
14383;BME280;7275;50.328;8.720;2023-02-03T12:24:22;100472.25;;;15.73;48.26
14383;BME280;7275;50.328;8.720;2023-02-03T12:27:00;100487.59;;;15.68;48.17
14383;BME280;7275;50.328;8.720;2023-02-03T12:29:34;100492.34;;;15.61;48.31
14383;BME280;7275;50.328;8.720;2023-02-03T12:32:08;100498.69;;;15.59;48.74
14383;BME280;7275;50.328;8.720;2023-02-03T12:34:47;100501.28;;;15.60;48.31
14383;BME280;7275;50.328;8.720;2023-02-03T12:37:22;100499.56;;;15.59;48.40
14383;BME280;7275;50.328;8.720;2023-02-03T12:39:52;100514.66;;;15.59;48.44
14383;BME280;7275;50.328;8.720;2023-02-03T12:42:23;100498.03;;;15.54;48.53
14383;BME280;7275;50.328;8.720;2023-02-03T12:44:56;100484.03;;;15.49;48.61
14383;BME280;7275;50.328;8.720;2023-02-03T12:47:29;100478.00;;;15.45;48.72
14383;BME280;7275;50.328;8.720;2023-02-03T12:50:04;100461.22;;;15.43;48.80
14383;BME280;7275;50.328;8.720;2023-02-03T12:52:37;100466.63;;;15.40;48.95
14383;BME280;7275;50.328;8.720;2023-02-03T12:55:16;100457.75;;;15.40;49.09
14383;BME280;7275;50.328;8.720;2023-02-03T12:57:50;100438.31;;;15.38;49.13
14383;BME280;7275;50.328;8.720;2023-02-03T13:00:32;100450.84;;;15.36;49.06
14383;BME280;7275;50.328;8.720;2023-02-03T13:03:19;100452.69;;;15.34;49.16
14383;BME280;7275;50.328;8.720;2023-02-03T13:05:55;100441.34;;;15.30;49.20
14383;BME280;7275;50.328;8.720;2023-02-03T13:08:29;100452.78;;;15.32;49.25
14383;BME280;7275;50.328;8.720;2023-02-03T13:11:07;100442.19;;;15.31;49.35
14383;BME280;7275;50.328;8.720;2023-02-03T13:13:43;100466.19;;;15.31;49.35
14383;BME280;7275;50.328;8.720;2023-02-03T13:16:15;100461.69;;;15.31;49.44
14383;BME280;7275;50.328;8.720;2023-02-03T13:18:49;100477.75;;;15.30;49.38
14383;BME280;7275;50.328;8.720;2023-02-03T13:21:20;100482.28;;;15.28;49.44